sensor_id;sensor_type;location;lat;lon;timestamp;temperature;humidity
75442;DHT22;64019;48.312;14.226;2022-12-07T00:01:24;3.70;99.90
75442;DHT22;64019;48.312;14.226;2022-12-07T00:03:53;3.70;99.90
75442;DHT22;64019;48.312;14.226;2022-12-07T00:06:20;3.60;99.90
75442;DHT22;64019;48.312;14.226;2022-12-07T00:08:46;3.60;99.90
75442;DHT22;64019;48.312;14.226;2022-12-07T00:11:15;3.60;99.90
75442;DHT22;64019;48.312;14.226;2022-12-07T00:13:41;3.70;99.90
75442;DHT22;64019;48.312;14.226;2022-12-07T00:16:16;3.70;99.90
75442;DHT22;64019;48.312;14.226;2022-12-07T00:18:43;3.70;99.90
75442;DHT22;64019;48.312;14.226;2022-12-07T00:21:14;3.70;99.90
75442;DHT22;64019;48.312;14.226;2022-12-07T00:23:42;3.70;99.90
75442;DHT22;64019;48.312;14.226;2022-12-07T00:26:16;3.70;99.90
75442;DHT22;64019;48.312;14.226;2022-12-07T00:28:51;3.70;99.90
75442;DHT22;64019;48.312;14.226;2022-12-07T00:31:20;3.70;99.90
75442;DHT22;64019;48.312;14.226;2022-12-07T00:33:46;3.70;99.90
75442;DHT22;64019;48.312;14.226;2022-12-07T00:36:14;3.70;99.90
75442;DHT22;64019;48.312;14.226;2022-12-07T00:38:40;3.70;99.90
75442;DHT22;64019;48.312;14.226;2022-12-07T00:41:12;3.80;99.90
75442;DHT22;64019;48.312;14.226;2022-12-07T00:43:39;3.80;99.90
75442;DHT22;64019;48.312;14.226;2022-12-07T00:46:05;3.80;99.90
75442;DHT22;64019;48.312;14.226;2022-12-07T00:48:31;3.80;99.90
75442;DHT22;64019;48.312;14.226;2022-12-07T00:50:57;3.80;99.90
75442;DHT22;64019;48.312;14.226;2022-12-07T00:53:23;3.80;99.90
75442;DHT22;64019;48.312;14.226;2022-12-07T00:55:48;3.80;99.90
75442;DHT22;64019;48.312;14.226;2022-12-07T00:58:14;3.90;99.90
75442;DHT22;64019;48.312;14.226;2022-12-07T01:00:42;3.90;99.90
75442;DHT22;64019;48.312;14.226;2022-12-07T01:03:11;3.90;99.90
75442;DHT22;64019;48.312;14.226;2022-12-07T01:05:37;3.80;99.90
75442;DHT22;64019;48.312;14.226;2022-12-07T01:08:02;3.80;99.90
75442;DHT22;64019;48.312;14.226;2022-12-07T01:10:28;3.80;99.90
75442;DHT22;64019;48.312;14.226;2022-12-07T01:12:56;3.80;99.90
75442;DHT22;64019;48.312;14.226;2022-12-07T01:15:22;3.80;99.90
75442;DHT22;64019;48.312;14.226;2022-12-07T01:17:48;3.90;99.90
75442;DHT22;64019;48.312;14.226;2022-12-07T01:20:14;3.80;99.90
75442;DHT22;64019;48.312;14.226;2022-12-07T01:22:42;3.80;99.90
75442;DHT22;64019;48.312;14.226;2022-12-07T01:25:09;3.80;99.90
75442;DHT22;64019;48.312;14.226;2022-12-07T01:27:35;3.80;99.90
75442;DHT22;64019;48.312;14.226;2022-12-07T01:30:02;3.70;99.90
75442;DHT22;64019;48.312;14.226;2022-12-07T01:32:28;3.80;99.90
75442;DHT22;64019;48.312;14.226;2022-12-07T01:34:54;3.80;99.90
75442;DHT22;64019;48.312;14.226;2022-12-07T01:37:20;3.80;99.90
75442;DHT22;64019;48.312;14.226;2022-12-07T01:39:49;3.80;99.90
75442;DHT22;64019;48.312;14.226;2022-12-07T01:42:15;3.80;99.90
75442;DHT22;64019;48.312;14.226;2022-12-07T01:47:46;3.80;99.90
75442;DHT22;64019;48.312;14.226;2022-12-07T01:50:13;3.90;99.90
75442;DHT22;64019;48.312;14.226;2022-12-07T01:52:40;3.80;99.90
75442;DHT22;64019;48.312;14.226;2022-12-07T01:55:10;3.80;99.90
75442;DHT22;64019;48.312;14.226;2022-12-07T01:57:41;3.80;99.90
75442;DHT22;64019;48.312;14.226;2022-12-07T02:00:08;3.80;99.90
75442;DHT22;64019;48.312;14.226;2022-12-07T02:02:57;3.90;99.90
75442;DHT22;64019;48.312;14.226;2022-12-07T02:05:22;3.70;99.90
75442;DHT22;64019;48.312;14.226;2022-12-07T02:07:51;3.80;99.90
75442;DHT22;64019;48.312;14.226;2022-12-07T02:10:21;3.70;99.90
75442;DHT22;64019;48.312;14.226;2022-12-07T02:12:54;3.80;99.90
75442;DHT22;64019;48.312;14.226;2022-12-07T02:15:22;3.80;99.90
75442;DHT22;64019;48.312;14.226;2022-12-07T02:17:52;3.90;99.90
75442;DHT22;64019;48.312;14.226;2022-12-07T02:28:34;3.90;99.90
75442;DHT22;64019;48.312;14.226;2022-12-07T02:31:13;4.00;99.90
75442;DHT22;64019;48.312;14.226;2022-12-07T02:33:45;3.90;99.90
75442;DHT22;64019;48.312;14.226;2022-12-07T02:36:24;3.90;99.90
75442;DHT22;64019;48.312;14.226;2022-12-07T02:39:28;3.90;99.90
75442;DHT22;64019;48.312;14.226;2022-12-07T02:42:03;3.80;99.90
75442;DHT22;64019;48.312;14.226;2022-12-07T02:44:33;3.80;99.90
75442;DHT22;64019;48.312;14.226;2022-12-07T02:47:05;3.80;99.90
75442;DHT22;64019;48.312;14.226;2022-12-07T02:49:33;3.90;99.90
75442;DHT22;64019;48.312;14.226;2022-12-07T02:52:00;3.90;99.90
75442;DHT22;64019;48.312;14.226;2022-12-07T02:54:26;3.90;99.90
75442;DHT22;64019;48.312;14.226;2022-12-07T03:00:05;3.90;99.90
75442;DHT22;64019;48.312;14.226;2022-12-07T03:18:37;4.00;99.90
75442;DHT22;64019;48.312;14.226;2022-12-07T03:21:08;3.90;99.90
75442;DHT22;64019;48.312;14.226;2022-12-07T03:23:38;3.90;99.90
75442;DHT22;64019;48.312;14.226;2022-12-07T03:26:09;3.90;99.90
75442;DHT22;64019;48.312;14.226;2022-12-07T03:28:39;3.90;99.90
75442;DHT22;64019;48.312;14.226;2022-12-07T03:31:18;3.80;99.90
75442;DHT22;64019;48.312;14.226;2022-12-07T03:36:38;3.80;99.90
75442;DHT22;64019;48.312;14.226;2022-12-07T03:42:03;3.80;99.90
75442;DHT22;64019;48.312;14.226;2022-12-07T03:44:31;3.80;99.90
75442;DHT22;64019;48.312;14.226;2022-12-07T03:47:23;3.80;99.90
75442;DHT22;64019;48.312;14.226;2022-12-07T03:49:59;3.80;99.90
75442;DHT22;64019;48.312;14.226;2022-12-07T03:52:36;3.70;99.90
75442;DHT22;64019;48.312;14.226;2022-12-07T03:55:27;3.70;99.90
75442;DHT22;64019;48.312;14.226;2022-12-07T03:57:56;3.70;99.90
75442;DHT22;64019;48.312;14.226;2022-12-07T04:00:23;3.70;99.90
75442;DHT22;64019;48.312;14.226;2022-12-07T04:02:52;3.80;99.90
75442;DHT22;64019;48.312;14.226;2022-12-07T04:05:18;3.70;99.90
75442;DHT22;64019;48.312;14.226;2022-12-07T04:07:44;3.70;99.90
75442;DHT22;64019;48.312;14.226;2022-12-07T04:10:10;3.60;99.90
75442;DHT22;64019;48.312;14.226;2022-12-07T04:12:36;3.70;99.90
75442;DHT22;64019;48.312;14.226;2022-12-07T04:15:02;3.60;99.90
75442;DHT22;64019;48.312;14.226;2022-12-07T04:17:28;3.60;99.90
75442;DHT22;64019;48.312;14.226;2022-12-07T04:19:54;3.60;99.90
75442;DHT22;64019;48.312;14.226;2022-12-07T04:22:20;3.60;99.90
75442;DHT22;64019;48.312;14.226;2022-12-07T04:24:45;3.60;99.90
75442;DHT22;64019;48.312;14.226;2022-12-07T04:27:11;3.60;99.90
75442;DHT22;64019;48.312;14.226;2022-12-07T04:29:36;3.70;99.90
75442;DHT22;64019;48.312;14.226;2022-12-07T04:32:02;3.60;99.90
75442;DHT22;64019;48.312;14.226;2022-12-07T04:34:28;3.60;99.90
75442;DHT22;64019;48.312;14.226;2022-12-07T04:36:53;3.60;99.90
75442;DHT22;64019;48.312;14.226;2022-12-07T04:39:27;3.70;99.90
75442;DHT22;64019;48.312;14.226;2022-12-07T04:41:53;3.70;99.90
75442;DHT22;64019;48.312;14.226;2022-12-07T04:44:20;3.70;99.90
75442;DHT22;64019;48.312;14.226;2022-12-07T04:46:47;3.60;99.90
75442;DHT22;64019;48.312;14.226;2022-12-07T04:49:13;3.60;99.90
75442;DHT22;64019;48.312;14.226;2022-12-07T04:51:39;3.60;99.90
75442;DHT22;64019;48.312;14.226;2022-12-07T04:54:05;3.50;99.90
75442;DHT22;64019;48.312;14.226;2022-12-07T04:56:31;3.60;99.90
75442;DHT22;64019;48.312;14.226;2022-12-07T04:58:57;3.50;99.90
75442;DHT22;64019;48.312;14.226;2022-12-07T05:01:24;3.50;99.90
75442;DHT22;64019;48.312;14.226;2022-12-07T05:03:50;3.50;99.90
75442;DHT22;64019;48.312;14.226;2022-12-07T05:06:16;3.40;99.90
75442;DHT22;64019;48.312;14.226;2022-12-07T05:08:42;3.40;99.90
75442;DHT22;64019;48.312;14.226;2022-12-07T05:11:09;3.40;99.90
75442;DHT22;64019;48.312;14.226;2022-12-07T05:13:35;3.40;99.90
75442;DHT22;64019;48.312;14.226;2022-12-07T05:16:02;3.30;99.90
75442;DHT22;64019;48.312;14.226;2022-12-07T05:18:27;3.30;99.90
75442;DHT22;64019;48.312;14.226;2022-12-07T05:20:53;3.30;99.90
75442;DHT22;64019;48.312;14.226;2022-12-07T05:23:19;3.30;99.90
75442;DHT22;64019;48.312;14.226;2022-12-07T05:25:46;3.40;99.90
75442;DHT22;64019;48.312;14.226;2022-12-07T05:28:11;3.40;99.90
75442;DHT22;64019;48.312;14.226;2022-12-07T05:30:37;3.50;99.90
75442;DHT22;64019;48.312;14.226;2022-12-07T05:33:03;3.50;99.90
75442;DHT22;64019;48.312;14.226;2022-12-07T05:35:29;3.40;99.90
75442;DHT22;64019;48.312;14.226;2022-12-07T05:37:55;3.40;99.90
75442;DHT22;64019;48.312;14.226;2022-12-07T05:40:21;3.40;99.90
75442;DHT22;64019;48.312;14.226;2022-12-07T05:42:47;3.40;99.90
75442;DHT22;64019;48.312;14.226;2022-12-07T05:45:12;3.40;99.90
75442;DHT22;64019;48.312;14.226;2022-12-07T05:47:38;3.40;99.90
75442;DHT22;64019;48.312;14.226;2022-12-07T05:50:04;3.40;99.90
75442;DHT22;64019;48.312;14.226;2022-12-07T05:52:31;3.40;99.90
75442;DHT22;64019;48.312;14.226;2022-12-07T05:54:56;3.40;99.90
75442;DHT22;64019;48.312;14.226;2022-12-07T05:57:22;3.30;99.90
75442;DHT22;64019;48.312;14.226;2022-12-07T05:59:48;3.30;99.90
75442;DHT22;64019;48.312;14.226;2022-12-07T06:02:15;3.30;99.90
75442;DHT22;64019;48.312;14.226;2022-12-07T06:04:43;3.30;99.90
75442;DHT22;64019;48.312;14.226;2022-12-07T06:07:09;3.40;99.90
75442;DHT22;64019;48.312;14.226;2022-12-07T06:09:35;3.40;99.90
75442;DHT22;64019;48.312;14.226;2022-12-07T06:12:02;3.40;99.90
75442;DHT22;64019;48.312;14.226;2022-12-07T06:14:46;3.40;99.90
75442;DHT22;64019;48.312;14.226;2022-12-07T06:17:13;3.30;99.90
75442;DHT22;64019;48.312;14.226;2022-12-07T06:19:39;3.40;99.90
75442;DHT22;64019;48.312;14.226;2022-12-07T06:22:05;3.30;99.90
75442;DHT22;64019;48.312;14.226;2022-12-07T06:24:32;3.30;99.90
75442;DHT22;64019;48.312;14.226;2022-12-07T06:26:58;3.30;99.90
75442;DHT22;64019;48.312;14.226;2022-12-07T06:29:24;3.40;99.90
75442;DHT22;64019;48.312;14.226;2022-12-07T06:31:49;3.40;99.90
75442;DHT22;64019;48.312;14.226;2022-12-07T06:34:17;3.30;99.90
75442;DHT22;64019;48.312;14.226;2022-12-07T06:36:43;3.40;99.90
75442;DHT22;64019;48.312;14.226;2022-12-07T06:39:10;3.40;99.90
75442;DHT22;64019;48.312;14.226;2022-12-07T06:41:39;3.40;99.90
75442;DHT22;64019;48.312;14.226;2022-12-07T06:44:05;3.40;99.90
75442;DHT22;64019;48.312;14.226;2022-12-07T06:46:32;3.50;99.90
75442;DHT22;64019;48.312;14.226;2022-12-07T06:48:57;3.40;99.90
75442;DHT22;64019;48.312;14.226;2022-12-07T06:51:23;3.40;99.90
75442;DHT22;64019;48.312;14.226;2022-12-07T06:53:49;3.50;99.90
75442;DHT22;64019;48.312;14.226;2022-12-07T06:56:15;3.50;99.90
75442;DHT22;64019;48.312;14.226;2022-12-07T06:58:40;3.50;99.90
75442;DHT22;64019;48.312;14.226;2022-12-07T07:01:14;3.50;99.90
75442;DHT22;64019;48.312;14.226;2022-12-07T07:03:41;3.60;99.90
75442;DHT22;64019;48.312;14.226;2022-12-07T07:06:07;3.60;99.90
75442;DHT22;64019;48.312;14.226;2022-12-07T07:08:34;3.60;99.90
75442;DHT22;64019;48.312;14.226;2022-12-07T07:11:00;3.60;99.90
75442;DHT22;64019;48.312;14.226;2022-12-07T07:13:26;3.60;99.90
75442;DHT22;64019;48.312;14.226;2022-12-07T07:15:53;3.60;99.90
75442;DHT22;64019;48.312;14.226;2022-12-07T07:18:19;3.70;99.90
75442;DHT22;64019;48.312;14.226;2022-12-07T07:20:44;3.70;99.90
75442;DHT22;64019;48.312;14.226;2022-12-07T07:23:10;3.70;99.90
75442;DHT22;64019;48.312;14.226;2022-12-07T07:25:36;3.60;99.90
75442;DHT22;64019;48.312;14.226;2022-12-07T07:28:02;3.60;99.90
75442;DHT22;64019;48.312;14.226;2022-12-07T07:30:28;3.50;99.90
75442;DHT22;64019;48.312;14.226;2022-12-07T07:32:57;3.60;99.90
75442;DHT22;64019;48.312;14.226;2022-12-07T07:35:24;3.70;99.90
75442;DHT22;64019;48.312;14.226;2022-12-07T07:37:50;3.70;99.90
75442;DHT22;64019;48.312;14.226;2022-12-07T07:40:16;3.70;99.90
75442;DHT22;64019;48.312;14.226;2022-12-07T07:42:41;3.70;99.90
75442;DHT22;64019;48.312;14.226;2022-12-07T07:45:08;3.70;99.90
75442;DHT22;64019;48.312;14.226;2022-12-07T07:47:34;3.70;99.90
75442;DHT22;64019;48.312;14.226;2022-12-07T07:49:59;3.70;99.90
75442;DHT22;64019;48.312;14.226;2022-12-07T07:52:26;3.70;99.90
75442;DHT22;64019;48.312;14.226;2022-12-07T07:54:51;3.70;99.90
75442;DHT22;64019;48.312;14.226;2022-12-07T07:57:17;3.70;99.90
75442;DHT22;64019;48.312;14.226;2022-12-07T07:59:43;3.70;99.90
75442;DHT22;64019;48.312;14.226;2022-12-07T08:02:16;3.70;99.90
75442;DHT22;64019;48.312;14.226;2022-12-07T08:04:43;3.70;99.90
75442;DHT22;64019;48.312;14.226;2022-12-07T08:07:09;3.70;99.90
75442;DHT22;64019;48.312;14.226;2022-12-07T08:09:35;3.60;99.90
75442;DHT22;64019;48.312;14.226;2022-12-07T08:12:00;3.70;99.90
75442;DHT22;64019;48.312;14.226;2022-12-07T08:14:27;3.70;99.90
75442;DHT22;64019;48.312;14.226;2022-12-07T08:16:54;3.80;99.90
75442;DHT22;64019;48.312;14.226;2022-12-07T08:19:20;3.80;99.90
75442;DHT22;64019;48.312;14.226;2022-12-07T08:21:46;3.80;99.90
75442;DHT22;64019;48.312;14.226;2022-12-07T08:24:12;3.80;99.90
75442;DHT22;64019;48.312;14.226;2022-12-07T08:26:37;3.90;99.90
75442;DHT22;64019;48.312;14.226;2022-12-07T08:29:03;3.90;99.90
75442;DHT22;64019;48.312;14.226;2022-12-07T08:31:29;3.90;99.90
75442;DHT22;64019;48.312;14.226;2022-12-07T08:33:55;3.80;99.90
75442;DHT22;64019;48.312;14.226;2022-12-07T08:36:21;3.90;99.90
75442;DHT22;64019;48.312;14.226;2022-12-07T08:38:48;3.90;99.90
75442;DHT22;64019;48.312;14.226;2022-12-07T08:41:14;3.90;99.90
75442;DHT22;64019;48.312;14.226;2022-12-07T08:43:40;4.00;99.90
75442;DHT22;64019;48.312;14.226;2022-12-07T08:48:33;3.90;99.90
75442;DHT22;64019;48.312;14.226;2022-12-07T08:51:01;3.90;99.90
75442;DHT22;64019;48.312;14.226;2022-12-07T08:53:28;4.00;99.90
75442;DHT22;64019;48.312;14.226;2022-12-07T08:55:55;4.00;99.90
75442;DHT22;64019;48.312;14.226;2022-12-07T08:58:22;3.90;99.90
75442;DHT22;64019;48.312;14.226;2022-12-07T09:00:48;3.90;99.90
75442;DHT22;64019;48.312;14.226;2022-12-07T09:03:13;4.00;99.90
75442;DHT22;64019;48.312;14.226;2022-12-07T09:05:39;3.90;99.90
75442;DHT22;64019;48.312;14.226;2022-12-07T09:08:05;3.90;99.90
75442;DHT22;64019;48.312;14.226;2022-12-07T09:10:32;4.00;99.90
75442;DHT22;64019;48.312;14.226;2022-12-07T09:12:57;4.10;99.90
75442;DHT22;64019;48.312;14.226;2022-12-07T09:15:27;4.20;99.90
75442;DHT22;64019;48.312;14.226;2022-12-07T09:17:53;4.20;99.90
75442;DHT22;64019;48.312;14.226;2022-12-07T09:20:19;4.30;99.90
75442;DHT22;64019;48.312;14.226;2022-12-07T09:22:44;4.20;99.90
75442;DHT22;64019;48.312;14.226;2022-12-07T09:25:10;4.30;99.90
75442;DHT22;64019;48.312;14.226;2022-12-07T09:27:36;4.30;99.90
75442;DHT22;64019;48.312;14.226;2022-12-07T09:30:03;4.30;99.90
75442;DHT22;64019;48.312;14.226;2022-12-07T09:32:28;4.30;99.90
75442;DHT22;64019;48.312;14.226;2022-12-07T09:34:54;4.20;99.90
75442;DHT22;64019;48.312;14.226;2022-12-07T09:37:20;4.20;99.90
75442;DHT22;64019;48.312;14.226;2022-12-07T09:39:46;4.30;99.90
75442;DHT22;64019;48.312;14.226;2022-12-07T09:44:51;4.30;99.90
75442;DHT22;64019;48.312;14.226;2022-12-07T09:47:16;4.30;99.90
75442;DHT22;64019;48.312;14.226;2022-12-07T09:49:42;4.30;99.90
75442;DHT22;64019;48.312;14.226;2022-12-07T09:54:36;4.40;99.90
75442;DHT22;64019;48.312;14.226;2022-12-07T09:57:02;4.40;99.90
75442;DHT22;64019;48.312;14.226;2022-12-07T09:59:29;4.40;99.90
75442;DHT22;64019;48.312;14.226;2022-12-07T10:01:55;4.40;99.90
75442;DHT22;64019;48.312;14.226;2022-12-07T10:04:23;4.50;99.90
75442;DHT22;64019;48.312;14.226;2022-12-07T10:06:50;4.50;99.90
75442;DHT22;64019;48.312;14.226;2022-12-07T10:09:19;4.50;99.90
75442;DHT22;64019;48.312;14.226;2022-12-07T10:12:08;4.60;99.90
75442;DHT22;64019;48.312;14.226;2022-12-07T10:14:52;4.60;99.90
75442;DHT22;64019;48.312;14.226;2022-12-07T10:17:35;4.60;99.90
75442;DHT22;64019;48.312;14.226;2022-12-07T10:25:26;4.40;99.90
75442;DHT22;64019;48.312;14.226;2022-12-07T10:30:50;4.20;99.90
75442;DHT22;64019;48.312;14.226;2022-12-07T10:33:36;4.20;99.90
75442;DHT22;64019;48.312;14.226;2022-12-07T10:36:36;4.30;99.90
75442;DHT22;64019;48.312;14.226;2022-12-07T10:39:15;4.30;99.90
75442;DHT22;64019;48.312;14.226;2022-12-07T10:41:57;4.40;99.90
75442;DHT22;64019;48.312;14.226;2022-12-07T10:44:29;4.50;99.90
75442;DHT22;64019;48.312;14.226;2022-12-07T10:55:51;4.50;99.90
75442;DHT22;64019;48.312;14.226;2022-12-07T11:01:16;4.60;99.90
75442;DHT22;64019;48.312;14.226;2022-12-07T11:03:52;4.60;99.90
75442;DHT22;64019;48.312;14.226;2022-12-07T11:09:56;4.90;99.90
75442;DHT22;64019;48.312;14.226;2022-12-07T11:14:56;5.00;99.90
75442;DHT22;64019;48.312;14.226;2022-12-07T11:31:54;4.90;99.90
75442;DHT22;64019;48.312;14.226;2022-12-07T11:37:28;4.80;99.90
75442;DHT22;64019;48.312;14.226;2022-12-07T11:40:00;4.80;99.90
75442;DHT22;64019;48.312;14.226;2022-12-07T11:42:30;4.80;99.90
75442;DHT22;64019;48.312;14.226;2022-12-07T11:45:03;4.80;99.90
75442;DHT22;64019;48.312;14.226;2022-12-07T11:50:26;4.90;99.90
75442;DHT22;64019;48.312;14.226;2022-12-07T12:03:47;5.10;99.90
75442;DHT22;64019;48.312;14.226;2022-12-07T12:06:14;5.20;99.90
75442;DHT22;64019;48.312;14.226;2022-12-07T12:08:54;5.10;99.90
75442;DHT22;64019;48.312;14.226;2022-12-07T12:19:19;5.10;99.90
75442;DHT22;64019;48.312;14.226;2022-12-07T12:21:48;5.10;99.90
75442;DHT22;64019;48.312;14.226;2022-12-07T12:24:22;5.20;99.90
75442;DHT22;64019;48.312;14.226;2022-12-07T12:27:02;5.30;99.90
75442;DHT22;64019;48.312;14.226;2022-12-07T12:29:35;5.30;99.90
75442;DHT22;64019;48.312;14.226;2022-12-07T12:32:41;5.20;99.90
75442;DHT22;64019;48.312;14.226;2022-12-07T12:37:55;5.40;99.90
75442;DHT22;64019;48.312;14.226;2022-12-07T12:47:41;5.40;99.90
75442;DHT22;64019;48.312;14.226;2022-12-07T12:50:17;5.30;99.90
75442;DHT22;64019;48.312;14.226;2022-12-07T12:57:36;5.30;99.90
75442;DHT22;64019;48.312;14.226;2022-12-07T13:00:20;5.20;99.90
75442;DHT22;64019;48.312;14.226;2022-12-07T13:02:54;5.20;99.90
75442;DHT22;64019;48.312;14.226;2022-12-07T13:05:31;5.30;99.90
75442;DHT22;64019;48.312;14.226;2022-12-07T13:07:58;5.20;99.90
75442;DHT22;64019;48.312;14.226;2022-12-07T13:20:57;5.00;99.90
75442;DHT22;64019;48.312;14.226;2022-12-07T13:28:38;4.90;99.90
75442;DHT22;64019;48.312;14.226;2022-12-07T13:31:29;4.90;99.90
75442;DHT22;64019;48.312;14.226;2022-12-07T13:33:55;5.00;99.90
75442;DHT22;64019;48.312;14.226;2022-12-07T13:36:31;5.10;99.90
75442;DHT22;64019;48.312;14.226;2022-12-07T13:39:21;5.00;99.90
75442;DHT22;64019;48.312;14.226;2022-12-07T13:41:58;5.10;99.90
75442;DHT22;64019;48.312;14.226;2022-12-07T13:44:26;5.20;99.90
75442;DHT22;64019;48.312;14.226;2022-12-07T13:47:17;5.30;99.90
75442;DHT22;64019;48.312;14.226;2022-12-07T13:49:50;5.40;99.90
75442;DHT22;64019;48.312;14.226;2022-12-07T13:52:27;5.40;99.90
75442;DHT22;64019;48.312;14.226;2022-12-07T13:57:33;5.60;99.90
75442;DHT22;64019;48.312;14.226;2022-12-07T14:00:04;5.60;99.90
75442;DHT22;64019;48.312;14.226;2022-12-07T14:02:32;5.40;99.90
75442;DHT22;64019;48.312;14.226;2022-12-07T14:05:31;5.30;99.90
75442;DHT22;64019;48.312;14.226;2022-12-07T14:10:30;5.30;99.90
75442;DHT22;64019;48.312;14.226;2022-12-07T14:12:57;5.30;99.90
75442;DHT22;64019;48.312;14.226;2022-12-07T14:15:32;5.30;99.90
75442;DHT22;64019;48.312;14.226;2022-12-07T14:18:01;5.30;99.90
75442;DHT22;64019;48.312;14.226;2022-12-07T14:20:40;5.30;99.90
75442;DHT22;64019;48.312;14.226;2022-12-07T14:23:24;5.30;99.90
75442;DHT22;64019;48.312;14.226;2022-12-07T14:25:51;5.30;99.90
75442;DHT22;64019;48.312;14.226;2022-12-07T14:28:31;5.20;99.90
75442;DHT22;64019;48.312;14.226;2022-12-07T14:30:58;5.20;99.90
75442;DHT22;64019;48.312;14.226;2022-12-07T14:33:24;5.20;99.90
75442;DHT22;64019;48.312;14.226;2022-12-07T14:35:50;5.10;99.90
75442;DHT22;64019;48.312;14.226;2022-12-07T14:38:22;5.20;99.90
75442;DHT22;64019;48.312;14.226;2022-12-07T14:40:53;5.20;99.90
75442;DHT22;64019;48.312;14.226;2022-12-07T14:43:19;5.10;99.90
75442;DHT22;64019;48.312;14.226;2022-12-07T14:45:46;5.10;99.90
75442;DHT22;64019;48.312;14.226;2022-12-07T14:48:13;5.10;99.90
75442;DHT22;64019;48.312;14.226;2022-12-07T14:50:45;5.10;99.90
75442;DHT22;64019;48.312;14.226;2022-12-07T14:53:19;5.10;99.90
75442;DHT22;64019;48.312;14.226;2022-12-07T14:55:47;5.10;99.90
75442;DHT22;64019;48.312;14.226;2022-12-07T14:58:14;5.20;99.90
75442;DHT22;64019;48.312;14.226;2022-12-07T15:00:41;5.20;99.90
75442;DHT22;64019;48.312;14.226;2022-12-07T15:03:07;5.10;99.90
75442;DHT22;64019;48.312;14.226;2022-12-07T15:05:33;5.00;99.90
75442;DHT22;64019;48.312;14.226;2022-12-07T15:07:59;5.00;99.90
75442;DHT22;64019;48.312;14.226;2022-12-07T15:10:30;5.00;99.90
75442;DHT22;64019;48.312;14.226;2022-12-07T15:13:01;5.10;99.90
75442;DHT22;64019;48.312;14.226;2022-12-07T15:15:47;5.10;99.90
75442;DHT22;64019;48.312;14.226;2022-12-07T15:18:13;5.00;99.90
75442;DHT22;64019;48.312;14.226;2022-12-07T15:20:39;5.00;99.90
75442;DHT22;64019;48.312;14.226;2022-12-07T15:23:05;4.90;99.90
75442;DHT22;64019;48.312;14.226;2022-12-07T15:25:30;4.80;99.90
75442;DHT22;64019;48.312;14.226;2022-12-07T15:27:56;4.80;99.90
75442;DHT22;64019;48.312;14.226;2022-12-07T15:30:22;4.70;99.90
75442;DHT22;64019;48.312;14.226;2022-12-07T15:32:51;4.60;99.90
75442;DHT22;64019;48.312;14.226;2022-12-07T15:35:17;4.40;99.90
75442;DHT22;64019;48.312;14.226;2022-12-07T15:37:42;4.30;99.90
75442;DHT22;64019;48.312;14.226;2022-12-07T15:40:09;4.20;99.90
75442;DHT22;64019;48.312;14.226;2022-12-07T15:42:38;4.20;99.90
75442;DHT22;64019;48.312;14.226;2022-12-07T15:45:05;4.10;99.90
75442;DHT22;64019;48.312;14.226;2022-12-07T15:47:34;4.00;99.90
75442;DHT22;64019;48.312;14.226;2022-12-07T15:50:02;3.90;99.90
75442;DHT22;64019;48.312;14.226;2022-12-07T15:52:28;3.80;99.90
75442;DHT22;64019;48.312;14.226;2022-12-07T15:54:54;3.90;99.90
75442;DHT22;64019;48.312;14.226;2022-12-07T15:57:20;3.80;99.90
75442;DHT22;64019;48.312;14.226;2022-12-07T15:59:45;3.80;99.90
75442;DHT22;64019;48.312;14.226;2022-12-07T16:02:11;3.70;99.90
75442;DHT22;64019;48.312;14.226;2022-12-07T16:04:36;3.70;99.90
75442;DHT22;64019;48.312;14.226;2022-12-07T16:07:02;3.60;99.90
75442;DHT22;64019;48.312;14.226;2022-12-07T16:09:28;3.60;99.90
75442;DHT22;64019;48.312;14.226;2022-12-07T16:11:54;3.70;99.90
75442;DHT22;64019;48.312;14.226;2022-12-07T16:14:20;3.60;99.90
75442;DHT22;64019;48.312;14.226;2022-12-07T16:16:47;3.60;99.90
75442;DHT22;64019;48.312;14.226;2022-12-07T16:19:13;3.60;99.90
75442;DHT22;64019;48.312;14.226;2022-12-07T16:21:38;3.60;99.90
75442;DHT22;64019;48.312;14.226;2022-12-07T16:24:04;3.60;99.90
75442;DHT22;64019;48.312;14.226;2022-12-07T16:26:31;3.70;99.90
75442;DHT22;64019;48.312;14.226;2022-12-07T16:28:57;3.70;99.90
75442;DHT22;64019;48.312;14.226;2022-12-07T16:31:24;3.70;99.90
75442;DHT22;64019;48.312;14.226;2022-12-07T16:33:53;3.70;99.90
75442;DHT22;64019;48.312;14.226;2022-12-07T16:36:19;3.70;99.90
75442;DHT22;64019;48.312;14.226;2022-12-07T16:38:47;3.70;99.90
75442;DHT22;64019;48.312;14.226;2022-12-07T16:41:13;3.70;99.90
75442;DHT22;64019;48.312;14.226;2022-12-07T16:43:39;3.70;99.90
75442;DHT22;64019;48.312;14.226;2022-12-07T16:46:06;3.70;99.90
75442;DHT22;64019;48.312;14.226;2022-12-07T16:48:35;3.70;99.90
75442;DHT22;64019;48.312;14.226;2022-12-07T16:51:08;3.70;99.90
75442;DHT22;64019;48.312;14.226;2022-12-07T16:53:35;3.70;99.90
75442;DHT22;64019;48.312;14.226;2022-12-07T16:56:01;3.70;99.90
75442;DHT22;64019;48.312;14.226;2022-12-07T16:58:27;3.60;99.90
75442;DHT22;64019;48.312;14.226;2022-12-07T17:00:53;3.70;99.90
75442;DHT22;64019;48.312;14.226;2022-12-07T17:03:19;3.60;99.90
75442;DHT22;64019;48.312;14.226;2022-12-07T17:05:45;3.60;99.90
75442;DHT22;64019;48.312;14.226;2022-12-07T17:08:13;3.60;99.90
75442;DHT22;64019;48.312;14.226;2022-12-07T17:10:42;3.60;99.90
75442;DHT22;64019;48.312;14.226;2022-12-07T17:13:08;3.60;99.90
75442;DHT22;64019;48.312;14.226;2022-12-07T17:15:58;3.60;99.90
75442;DHT22;64019;48.312;14.226;2022-12-07T17:18:23;3.60;99.90
75442;DHT22;64019;48.312;14.226;2022-12-07T17:20:49;3.60;99.90
75442;DHT22;64019;48.312;14.226;2022-12-07T17:23:15;3.70;99.90
75442;DHT22;64019;48.312;14.226;2022-12-07T17:25:40;3.60;99.90
75442;DHT22;64019;48.312;14.226;2022-12-07T17:28:06;3.70;99.90
75442;DHT22;64019;48.312;14.226;2022-12-07T17:30:32;3.60;99.90
75442;DHT22;64019;48.312;14.226;2022-12-07T17:32:57;3.60;99.90
75442;DHT22;64019;48.312;14.226;2022-12-07T17:35:23;3.60;99.90
75442;DHT22;64019;48.312;14.226;2022-12-07T17:37:49;3.70;99.90
75442;DHT22;64019;48.312;14.226;2022-12-07T17:40:15;3.60;99.90
75442;DHT22;64019;48.312;14.226;2022-12-07T17:42:40;3.60;99.90
75442;DHT22;64019;48.312;14.226;2022-12-07T17:45:11;3.70;99.90
75442;DHT22;64019;48.312;14.226;2022-12-07T17:47:37;3.70;99.90
75442;DHT22;64019;48.312;14.226;2022-12-07T17:50:04;3.60;99.90
75442;DHT22;64019;48.312;14.226;2022-12-07T17:52:30;3.60;99.90
75442;DHT22;64019;48.312;14.226;2022-12-07T17:55:14;3.60;99.90
75442;DHT22;64019;48.312;14.226;2022-12-07T17:57:40;3.60;99.90
75442;DHT22;64019;48.312;14.226;2022-12-07T18:00:06;3.60;99.90
75442;DHT22;64019;48.312;14.226;2022-12-07T18:02:33;3.50;99.90
75442;DHT22;64019;48.312;14.226;2022-12-07T18:04:58;3.50;99.90